METAR Data
IDs: Format: Raw Decoded Include TAF

Data at: 1438 UTC 25 Jan 2020

METAR for:KFRR (Front Royal/Warren C, VA, US)
Text:KFRR 251435Z AUTO 00000KT 2SM SCT003 BKN015 OVC029 06/06 A2986 RMK AO1
Temperature: 6.0°C ( 43°F)
Dewpoint: 6.0°C ( 43°F) [RH = 100%]
Pressure (altimeter):29.86 inches Hg (1011.3 mb)
Winds:calm
Visibility: 2.00 sm ( 3.22 km)
Ceiling:1500 feet AGL
Clouds: scattered clouds at 300 feet AGL, broken clouds at 1500 feet AGL, overcast cloud deck at 2900 feet AGL
QC Flag:automated observation with no human augmentation